createdAt,value
2022-11-06T00:02:20.555Z,101582.28
2022-11-06T00:12:25.642Z,101589.44
2022-11-06T00:22:29.243Z,101594.16
2022-11-06T00:32:33.849Z,101594.88
2022-11-06T00:42:36.853Z,101595.78
2022-11-06T00:52:41.357Z,101600.41
2022-11-06T01:02:45.558Z,101602.28
2022-11-06T01:12:49.970Z,101602.78
2022-11-06T01:22:53.073Z,101601.28
2022-11-06T01:32:57.513Z,101603.16
2022-11-06T01:43:00.649Z,101607.31
2022-11-06T01:53:05.766Z,101612.84
2022-11-06T02:03:09.108Z,101613.63
2022-11-06T02:13:26.282Z,101618.59
2022-11-06T02:23:45.894Z,101619.78
2022-11-06T02:33:55.465Z,101625.22
2022-11-06T02:43:59.670Z,101630.06
2022-11-06T02:54:07.198Z,101633.09
2022-11-06T03:04:16.958Z,101637.09
2022-11-06T03:14:29.955Z,101641.16
2022-11-06T03:24:40.060Z,101644.59
2022-11-06T03:45:47.046Z,101650.38
2022-11-06T03:55:56.015Z,101651.69
2022-11-06T04:06:06.567Z,101652.41
2022-11-06T04:16:12.271Z,101653.66
2022-11-06T04:26:39.479Z,101658.88
2022-11-06T04:36:47.061Z,101656.22
2022-11-06T04:46:56.627Z,101660.25
2022-11-06T04:57:00.797Z,101664.38
2022-11-06T05:07:05.219Z,101665.66
2022-11-06T05:17:08.324Z,101671.66
2022-11-06T05:27:15.341Z,101673.56
2022-11-06T05:37:19.565Z,101678.56
2022-11-06T05:47:24.182Z,101684.66
2022-11-06T05:57:27.265Z,101690.09
2022-11-06T06:07:32.087Z,101695.59
2022-11-06T06:17:35.577Z,101700.44
2022-11-06T06:59:38.010Z,101715.13
2022-11-06T07:09:50.419Z,101712.50
2022-11-06T07:20:00.512Z,101708.84
2022-11-06T07:30:04.613Z,101711.53
2022-11-06T07:40:10.866Z,101716.50
2022-11-06T07:50:13.823Z,101720.69
2022-11-06T08:00:21.295Z,101725.00
2022-11-06T08:10:24.408Z,101724.81
2022-11-06T08:20:29.054Z,101723.41
2022-11-06T08:30:32.573Z,101724.31
2022-11-06T08:40:39.024Z,101724.22
2022-11-06T08:50:44.624Z,101724.84
2022-11-06T09:00:49.908Z,101719.88
2022-11-06T09:10:58.143Z,101722.50
2022-11-06T09:21:03.522Z,101721.47
2022-11-06T09:31:06.842Z,101722.84
2022-11-06T09:41:21.190Z,101722.09
2022-11-06T09:51:32.788Z,101721.06
2022-11-06T10:01:44.790Z,101720.22
2022-11-06T10:12:02.900Z,101721.72
2022-11-06T10:22:15.902Z,101722.84
2022-11-06T10:32:46.748Z,101724.88
2022-11-06T10:42:58.379Z,101722.53
2022-11-06T10:53:08.767Z,101718.03
2022-11-06T11:03:24.818Z,101714.09
2022-11-06T11:13:27.947Z,101713.19
2022-11-06T11:23:32.792Z,101714.09
2022-11-06T11:44:08.426Z,101710.53
2022-11-06T11:54:20.074Z,101709.69
2022-11-06T12:04:29.204Z,101705.69
2022-11-06T12:14:35.111Z,101704.41
2022-11-06T12:24:45.428Z,101704.28
2022-11-06T12:34:52.994Z,101704.78
2022-11-06T12:44:57.542Z,101704.13
2022-11-06T12:55:15.555Z,101702.66
2022-11-06T13:05:24.825Z,101703.47
2022-11-06T13:15:34.412Z,101704.72
2022-11-06T13:25:49.084Z,101706.66
2022-11-06T13:35:52.907Z,101708.91
2022-11-06T13:46:06.163Z,101710.19
2022-11-06T13:56:21.906Z,101712.44
2022-11-06T14:06:31.680Z,101715.72
2022-11-06T14:27:37.541Z,101717.56
2022-11-06T14:38:16.445Z,101716.66
2022-11-06T14:48:27.967Z,101719.84
2022-11-06T14:58:35.358Z,101722.69
2022-11-06T15:08:56.490Z,101723.59
2022-11-06T15:19:06.745Z,101723.56
2022-11-06T15:29:20.742Z,101723.13
2022-11-06T15:39:40.830Z,101723.28
2022-11-06T15:49:43.785Z,101715.97
2022-11-06T15:59:51.143Z,101714.53
2022-11-06T16:09:54.437Z,101709.94
2022-11-06T16:20:02.405Z,101710.09
2022-11-06T16:30:24.849Z,101705.72
2022-11-06T16:40:53.968Z,101704.50
2022-11-06T16:51:00.019Z,101704.25
2022-11-06T17:01:07.028Z,101704.59
2022-11-06T17:11:22.200Z,101697.09
2022-11-06T17:21:29.015Z,101695.03
2022-11-06T17:31:33.741Z,101692.59
2022-11-06T17:41:40.733Z,101687.91
2022-11-06T17:51:50.536Z,101687.25
2022-11-06T18:01:56.419Z,101685.41
2022-11-06T18:12:00.670Z,101683.34
2022-11-06T18:22:09.057Z,101680.59
2022-11-06T18:32:12.552Z,101679.41
2022-11-06T18:42:17.616Z,101678.22
2022-11-06T18:52:44.310Z,101676.34
2022-11-06T19:02:46.251Z,101674.91
2022-11-06T19:12:49.377Z,101669.28
2022-11-06T19:22:54.617Z,101666.13
2022-11-06T19:33:02.146Z,101657.56
2022-11-06T19:43:11.257Z,101655.81
2022-11-06T19:53:19.351Z,101649.91
2022-11-06T20:03:23.952Z,101647.31
2022-11-06T20:13:26.890Z,101644.38
2022-11-06T20:23:32.603Z,101639.50
2022-11-06T20:43:56.125Z,101622.06
2022-11-06T20:53:59.711Z,101619.34
2022-11-06T21:04:04.127Z,101613.66
2022-11-06T21:14:07.030Z,101610.31
2022-11-06T21:24:13.189Z,101607.47
2022-11-06T21:34:16.911Z,101602.47
2022-11-06T21:44:21.409Z,101600.44
2022-11-06T21:54:43.154Z,101597.25
2022-11-06T22:04:47.714Z,101594.31
2022-11-06T22:14:50.594Z,101586.25
2022-11-06T22:24:55.288Z,101579.72
2022-11-06T22:34:58.452Z,101575.94
2022-11-06T22:45:02.962Z,101570.47
2022-11-06T22:55:06.707Z,101567.78
2022-11-06T23:05:11.244Z,101564.69
2022-11-06T23:15:14.231Z,101562.31
2022-11-06T23:25:19.977Z,101558.13
2022-11-06T23:46:12.062Z,101550.84
2022-11-06T23:56:17.140Z,101547.22
